createdAt,value
2022-12-03T00:01:01.041Z,4.75
2022-12-03T00:03:29.727Z,4.74
2022-12-03T00:05:57.738Z,4.78
2022-12-03T00:08:25.568Z,4.78
2022-12-03T00:10:53.482Z,4.75
2022-12-03T00:13:21.650Z,4.73
2022-12-03T00:15:49.739Z,4.73
2022-12-03T00:18:17.890Z,4.72
2022-12-03T00:20:45.849Z,4.73
2022-12-03T00:23:13.662Z,4.73
2022-12-03T00:25:41.595Z,4.74
2022-12-03T00:28:09.470Z,4.75
2022-12-03T00:30:37.332Z,4.76
2022-12-03T00:33:05.298Z,4.76
2022-12-03T00:35:33.360Z,4.75
2022-12-03T00:38:01.226Z,4.74
2022-12-03T00:40:29.377Z,4.75
2022-12-03T00:42:57.296Z,4.72
2022-12-03T00:45:25.237Z,4.69
2022-12-03T00:47:53.204Z,4.71
2022-12-03T00:50:21.173Z,4.72
2022-12-03T00:52:49.939Z,4.72
2022-12-03T00:55:17.895Z,4.70
2022-12-03T00:57:45.991Z,4.69
2022-12-03T01:00:14.684Z,4.67
2022-12-03T01:02:42.970Z,4.66
2022-12-03T01:05:11.429Z,4.67
2022-12-03T01:07:39.889Z,4.68
2022-12-03T01:10:08.305Z,4.67
2022-12-03T01:12:36.140Z,4.67
2022-12-03T01:15:05.657Z,4.65
2022-12-03T01:17:33.548Z,4.62
2022-12-03T01:20:03.965Z,4.60
2022-12-03T01:22:32.031Z,4.65
2022-12-03T01:25:00.212Z,4.65
2022-12-03T01:27:28.158Z,4.67
2022-12-03T01:29:56.050Z,4.67
2022-12-03T01:32:23.839Z,4.66
2022-12-03T01:34:53.865Z,4.61
2022-12-03T01:37:24.890Z,4.57
2022-12-03T01:39:53.023Z,4.60
2022-12-03T01:42:27.567Z,4.59
2022-12-03T01:44:58.417Z,4.57
2022-12-03T01:47:31.820Z,4.54
2022-12-03T01:50:15.735Z,4.53
2022-12-03T01:52:44.316Z,4.56
2022-12-03T01:55:16.587Z,4.55
2022-12-03T01:57:53.875Z,4.49
2022-12-03T02:00:26.976Z,4.45
2022-12-03T02:03:01.076Z,4.44
2022-12-03T02:05:31.349Z,4.44
2022-12-03T02:08:00.471Z,4.43
2022-12-03T02:10:32.816Z,4.41
2022-12-03T02:13:06.608Z,4.41
2022-12-03T02:15:36.072Z,4.40
2022-12-03T02:18:04.345Z,4.40
2022-12-03T02:20:37.080Z,4.40
2022-12-03T02:23:12.196Z,4.41
2022-12-03T02:25:40.019Z,4.42
2022-12-03T02:28:09.644Z,4.41
2022-12-03T02:30:37.795Z,4.39
2022-12-03T02:33:05.803Z,4.36
2022-12-03T02:35:36.718Z,4.35
2022-12-03T02:38:18.607Z,4.33
2022-12-03T02:40:49.341Z,4.32
2022-12-03T02:43:19.641Z,4.33
2022-12-03T02:45:51.669Z,4.31
2022-12-03T02:48:24.204Z,4.29
2022-12-03T02:50:55.921Z,4.29
2022-12-03T02:53:28.795Z,4.31
2022-12-03T02:55:59.553Z,4.32
2022-12-03T02:58:31.271Z,4.28
2022-12-03T03:01:00.989Z,4.27
2022-12-03T03:03:30.993Z,4.24
2022-12-03T03:06:02.357Z,4.18
2022-12-03T03:08:31.402Z,4.14
2022-12-03T03:11:01.563Z,4.14
2022-12-03T03:13:31.345Z,4.16
2022-12-03T03:15:59.746Z,4.18
2022-12-03T03:18:27.862Z,4.17
2022-12-03T03:20:55.957Z,4.17
2022-12-03T03:23:24.916Z,4.18
2022-12-03T03:26:11.549Z,4.20
2022-12-03T03:28:43.076Z,4.21
2022-12-03T03:31:14.300Z,4.23
2022-12-03T03:33:45.668Z,4.19
2022-12-03T03:36:15.360Z,4.15
2022-12-03T03:38:44.248Z,4.10
2022-12-03T03:41:13.442Z,4.06
2022-12-03T03:43:43.176Z,4.05
2022-12-03T03:46:12.358Z,4.06
2022-12-03T03:48:42.658Z,4.05
2022-12-03T03:51:12.652Z,4.00
2022-12-03T03:53:44.308Z,3.97
2022-12-03T03:56:12.565Z,3.95
2022-12-03T03:58:41.159Z,3.94
2022-12-03T04:01:11.409Z,3.95
2022-12-03T04:03:39.894Z,3.91
2022-12-03T04:06:09.164Z,3.88
2022-12-03T04:08:37.061Z,3.87
2022-12-03T04:11:23.802Z,3.82
2022-12-03T04:13:51.948Z,3.77
2022-12-03T04:16:19.917Z,3.74
2022-12-03T04:18:48.255Z,3.72
2022-12-03T04:21:40.870Z,3.74
2022-12-03T04:24:10.402Z,3.71
2022-12-03T04:26:57.107Z,3.70
2022-12-03T04:29:25.162Z,3.70
2022-12-03T04:32:11.639Z,3.70
2022-12-03T04:34:58.109Z,3.68
2022-12-03T04:37:26.055Z,3.64
2022-12-03T04:39:53.983Z,3.60
2022-12-03T04:42:22.140Z,3.58
2022-12-03T04:44:50.511Z,3.56
2022-12-03T04:47:20.870Z,3.55
2022-12-03T04:49:51.349Z,3.51
2022-12-03T04:52:20.583Z,3.48
2022-12-03T04:54:48.646Z,3.46
2022-12-03T04:57:17.441Z,3.44
2022-12-03T04:59:45.364Z,3.43
2022-12-03T05:02:13.271Z,3.43
2022-12-03T05:04:42.122Z,3.41
2022-12-03T05:07:11.430Z,3.40
2022-12-03T05:09:39.378Z,3.39
2022-12-03T05:12:07.551Z,3.37
2022-12-03T05:14:36.889Z,3.34
2022-12-03T05:17:05.011Z,3.33
2022-12-03T05:19:51.537Z,3.31
2022-12-03T05:22:19.424Z,3.25
2022-12-03T05:24:47.305Z,3.24
2022-12-03T05:27:18.859Z,3.23
2022-12-03T05:29:51.645Z,3.21
2022-12-03T05:32:20.070Z,3.17
2022-12-03T05:34:48.054Z,3.16
2022-12-03T05:37:16.110Z,3.14
2022-12-03T05:39:44.295Z,3.12
2022-12-03T05:42:31.422Z,3.10
2022-12-03T05:44:59.363Z,3.07
2022-12-03T05:47:27.338Z,3.06
2022-12-03T05:49:55.204Z,3.09
2022-12-03T05:52:22.968Z,3.12
2022-12-03T05:54:50.928Z,3.11
2022-12-03T05:57:19.136Z,3.08
2022-12-03T05:59:46.908Z,3.06
2022-12-03T06:02:14.807Z,2.99
2022-12-03T06:04:42.902Z,3.00
2022-12-03T06:07:13.939Z,2.95
2022-12-03T06:09:42.250Z,2.93
2022-12-03T06:12:10.157Z,2.87
2022-12-03T06:14:38.237Z,2.84
2022-12-03T06:17:06.031Z,2.81
2022-12-03T06:19:34.816Z,2.81
2022-12-03T06:22:02.602Z,2.81
2022-12-03T06:24:30.518Z,2.76
2022-12-03T06:26:58.382Z,2.74
2022-12-03T06:29:26.234Z,2.72
2022-12-03T06:31:54.138Z,2.71
2022-12-03T06:34:22.122Z,2.68
2022-12-03T06:36:50.397Z,2.65
2022-12-03T06:39:18.571Z,2.63
2022-12-03T06:41:46.519Z,2.65
2022-12-03T06:44:15.121Z,2.67
2022-12-03T06:46:43.232Z,2.68
2022-12-03T06:49:11.102Z,2.69
2022-12-03T06:51:39.568Z,2.66
2022-12-03T06:54:07.560Z,2.66
2022-12-03T06:56:40.419Z,2.66
2022-12-03T06:59:13.601Z,2.63
2022-12-03T07:01:41.656Z,2.67
2022-12-03T07:04:09.988Z,2.63
2022-12-03T07:06:37.905Z,2.57
2022-12-03T07:09:05.778Z,2.52
2022-12-03T07:11:39.734Z,2.53
2022-12-03T07:14:11.477Z,2.56
2022-12-03T07:16:40.074Z,2.58
2022-12-03T07:19:08.149Z,2.60
2022-12-03T07:21:36.037Z,2.64
2022-12-03T07:24:04.131Z,2.70
2022-12-03T07:26:32.530Z,2.77
2022-12-03T07:29:00.468Z,2.83
2022-12-03T07:31:28.584Z,2.86
2022-12-03T07:33:56.714Z,2.93
2022-12-03T07:36:24.645Z,2.97
2022-12-03T07:38:52.481Z,3.01
2022-12-03T07:41:20.366Z,3.10
2022-12-03T07:43:48.404Z,3.15
2022-12-03T07:46:18.751Z,3.18
2022-12-03T07:48:46.726Z,3.23
2022-12-03T07:51:15.567Z,3.27
2022-12-03T07:53:43.704Z,3.36
2022-12-03T07:56:11.749Z,3.48
2022-12-03T07:58:39.792Z,3.61
2022-12-03T08:01:07.919Z,3.74
2022-12-03T08:03:36.224Z,3.84
2022-12-03T08:06:04.364Z,3.92
2022-12-03T08:08:32.267Z,4.04
2022-12-03T08:11:02.136Z,4.15
2022-12-03T08:13:30.460Z,4.25
2022-12-03T08:16:02.123Z,4.34
2022-12-03T08:18:30.093Z,4.42
2022-12-03T08:20:58.406Z,4.49
2022-12-03T08:23:26.526Z,4.56
2022-12-03T08:25:54.582Z,4.64
2022-12-03T08:28:26.639Z,4.72
2022-12-03T08:31:02.583Z,4.79
2022-12-03T08:33:35.254Z,4.85
2022-12-03T08:36:30.725Z,4.93
2022-12-03T08:39:23.169Z,5.05
2022-12-03T08:42:15.259Z,5.12
2022-12-03T08:44:43.128Z,5.20
2022-12-03T08:47:17.126Z,5.27
2022-12-03T08:49:54.476Z,5.32
2022-12-03T08:52:31.391Z,5.38
2022-12-03T08:55:02.826Z,5.45
2022-12-03T08:57:34.579Z,5.52
2022-12-03T09:00:15.540Z,5.58
2022-12-03T09:02:47.517Z,5.64
2022-12-03T09:05:26.396Z,5.69
2022-12-03T09:07:54.499Z,5.75
2022-12-03T09:10:22.546Z,5.81
2022-12-03T09:12:50.514Z,5.88
2022-12-03T09:15:18.339Z,5.94
2022-12-03T09:17:46.203Z,6.00
2022-12-03T09:20:14.188Z,6.05
2022-12-03T09:22:42.287Z,6.11
2022-12-03T09:25:10.460Z,6.19
2022-12-03T09:27:38.297Z,6.25
2022-12-03T09:30:06.849Z,6.29
2022-12-03T09:32:34.827Z,6.35
2022-12-03T09:35:04.952Z,6.40
2022-12-03T09:37:32.853Z,6.47
2022-12-03T09:40:01.028Z,6.52
2022-12-03T09:42:28.955Z,6.60
2022-12-03T09:44:57.085Z,6.64
2022-12-03T09:47:25.502Z,6.70
2022-12-03T09:49:53.958Z,6.76
2022-12-03T09:52:28.957Z,6.80
2022-12-03T09:54:58.560Z,6.83
2022-12-03T09:57:26.769Z,6.86
2022-12-03T09:59:58.871Z,6.89
2022-12-03T10:02:30.044Z,6.94
2022-12-03T10:04:58.483Z,6.99
2022-12-03T10:07:26.658Z,7.03
2022-12-03T10:09:54.903Z,7.06
2022-12-03T10:12:25.105Z,7.11
2022-12-03T10:14:54.315Z,7.14
2022-12-03T10:17:22.590Z,7.18
2022-12-03T10:19:50.621Z,7.23
2022-12-03T10:22:18.704Z,7.24
2022-12-03T10:25:04.055Z,7.28
2022-12-03T10:27:33.218Z,7.33
2022-12-03T10:30:04.773Z,7.35
2022-12-03T10:32:45.508Z,7.37
2022-12-03T10:35:21.036Z,7.41
2022-12-03T10:37:59.835Z,7.44
2022-12-03T10:40:33.609Z,7.46
2022-12-03T10:43:15.545Z,7.47
2022-12-03T10:45:48.277Z,7.51
2022-12-03T10:48:19.357Z,7.54
2022-12-03T10:50:52.100Z,7.57
2022-12-03T10:53:22.504Z,7.62
2022-12-03T10:55:52.494Z,7.68
2022-12-03T10:58:26.195Z,7.72
2022-12-03T11:00:56.442Z,7.77
2022-12-03T11:03:30.768Z,7.81
2022-12-03T11:06:01.664Z,7.86
2022-12-03T11:08:34.195Z,7.89
2022-12-03T11:11:06.984Z,7.93
2022-12-03T11:13:34.783Z,8.01
2022-12-03T11:16:05.787Z,8.08
2022-12-03T11:18:36.568Z,8.13
2022-12-03T11:21:09.109Z,8.15
2022-12-03T11:23:46.757Z,8.18
2022-12-03T11:26:19.650Z,8.21
2022-12-03T11:28:47.864Z,8.24
2022-12-03T11:31:38.367Z,8.26
2022-12-03T11:34:31.549Z,8.28
2022-12-03T11:37:10.071Z,8.31
2022-12-03T11:39:55.654Z,8.34
2022-12-03T11:42:26.628Z,8.35
2022-12-03T11:45:06.770Z,8.35
2022-12-03T11:47:39.766Z,8.36
2022-12-03T11:50:20.898Z,8.37
2022-12-03T11:52:54.567Z,8.39
2022-12-03T11:55:33.098Z,8.41
2022-12-03T11:58:15.260Z,8.44
2022-12-03T12:00:55.312Z,8.47
2022-12-03T12:03:24.810Z,8.51
2022-12-03T12:06:19.288Z,8.57
2022-12-03T12:08:49.852Z,8.61
2022-12-03T12:11:19.347Z,8.67
2022-12-03T12:13:47.201Z,8.73
2022-12-03T12:16:56.028Z,8.76
2022-12-03T12:19:49.748Z,8.80
2022-12-03T12:22:29.825Z,8.80
2022-12-03T12:24:59.065Z,8.81
2022-12-03T12:27:37.757Z,8.80
2022-12-03T12:30:10.026Z,8.81
2022-12-03T12:32:47.184Z,8.82
2022-12-03T12:35:17.232Z,8.82
2022-12-03T12:38:01.060Z,8.84
2022-12-03T12:40:32.359Z,8.85
2022-12-03T12:43:10.244Z,8.87
2022-12-03T12:45:42.861Z,8.89
2022-12-03T12:48:31.401Z,8.91
2022-12-03T12:51:20.818Z,8.92
2022-12-03T12:53:50.232Z,8.93
2022-12-03T12:56:25.030Z,8.93
2022-12-03T12:58:53.954Z,8.93
2022-12-03T13:01:32.696Z,8.92
2022-12-03T13:04:00.795Z,8.91
2022-12-03T13:06:32.020Z,8.91
2022-12-03T13:09:02.475Z,8.91
2022-12-03T13:11:45.628Z,8.89
2022-12-03T13:14:31.532Z,8.88
2022-12-03T13:17:02.105Z,8.91
2022-12-03T13:19:43.302Z,8.93
2022-12-03T13:22:22.406Z,8.95
2022-12-03T13:24:52.019Z,8.94
2022-12-03T13:27:19.966Z,8.92
2022-12-03T13:29:53.621Z,8.89
2022-12-03T13:32:27.722Z,8.90
2022-12-03T13:35:02.530Z,8.91
2022-12-03T13:37:32.056Z,8.88
2022-12-03T13:40:12.662Z,8.83
2022-12-03T13:42:45.191Z,8.77
2022-12-03T13:45:19.160Z,8.74
2022-12-03T13:47:49.460Z,8.72
2022-12-03T13:50:35.763Z,8.70
2022-12-03T13:53:28.469Z,8.63
2022-12-03T13:56:31.783Z,8.58
2022-12-03T13:59:01.228Z,8.52
2022-12-03T14:01:29.228Z,8.47
2022-12-03T14:03:57.442Z,8.42
2022-12-03T14:06:25.257Z,8.36
2022-12-03T14:08:53.509Z,8.32
2022-12-03T14:11:40.175Z,8.23
2022-12-03T14:14:08.203Z,8.18
2022-12-03T14:16:36.090Z,8.13
2022-12-03T14:19:04.246Z,8.07
2022-12-03T14:21:32.212Z,8.02
2022-12-03T14:24:00.194Z,7.97
2022-12-03T14:26:28.101Z,7.94
2022-12-03T14:28:56.186Z,7.89
2022-12-03T14:31:24.427Z,7.86
2022-12-03T14:33:52.739Z,7.82
2022-12-03T14:36:20.912Z,7.79
2022-12-03T14:38:48.780Z,7.76
2022-12-03T14:41:35.453Z,7.70
2022-12-03T14:44:03.464Z,7.65
2022-12-03T14:46:34.036Z,7.60
2022-12-03T14:49:01.966Z,7.57
2022-12-03T14:51:30.027Z,7.53
2022-12-03T14:53:57.867Z,7.53
2022-12-03T14:56:25.840Z,7.51
2022-12-03T14:58:53.842Z,7.47
2022-12-03T15:01:21.822Z,7.44
2022-12-03T15:03:49.806Z,7.42
2022-12-03T15:06:17.731Z,7.39
2022-12-03T15:08:45.615Z,7.37
2022-12-03T15:11:13.569Z,7.35
2022-12-03T15:13:41.383Z,7.32
2022-12-03T15:16:09.300Z,7.29
2022-12-03T15:18:37.268Z,7.27
2022-12-03T15:21:05.752Z,7.23
2022-12-03T15:23:34.905Z,7.20
2022-12-03T15:26:03.515Z,7.17
2022-12-03T15:28:31.408Z,7.14
2022-12-03T15:30:59.305Z,7.10
2022-12-03T15:33:27.587Z,7.09
2022-12-03T15:35:55.445Z,7.08
2022-12-03T15:38:23.387Z,7.08
2022-12-03T15:40:51.330Z,7.05
2022-12-03T15:43:19.301Z,7.02
2022-12-03T15:45:47.226Z,6.99
2022-12-03T15:48:15.144Z,6.96
2022-12-03T15:50:43.004Z,6.95
2022-12-03T15:53:10.806Z,6.94
2022-12-03T15:55:38.650Z,6.89
2022-12-03T15:58:06.679Z,6.82
2022-12-03T16:00:34.534Z,6.74
2022-12-03T16:03:02.464Z,6.69
2022-12-03T16:05:30.454Z,6.63
2022-12-03T16:07:58.626Z,6.53
2022-12-03T16:10:26.553Z,6.44
2022-12-03T16:12:54.418Z,6.39
2022-12-03T16:15:27.048Z,6.35
2022-12-03T16:17:55.568Z,6.31
2022-12-03T16:20:23.434Z,6.28
2022-12-03T16:22:52.152Z,6.26
2022-12-03T16:25:20.040Z,6.25
2022-12-03T16:27:47.960Z,6.24
2022-12-03T16:30:16.095Z,6.22
2022-12-03T16:32:43.916Z,6.19
2022-12-03T16:35:11.848Z,6.14
2022-12-03T16:37:39.775Z,6.11
2022-12-03T16:40:08.576Z,6.08
2022-12-03T16:42:37.438Z,6.01
2022-12-03T16:45:10.328Z,5.99
2022-12-03T16:47:38.397Z,5.95
2022-12-03T16:50:11.564Z,5.89
2022-12-03T16:52:42.460Z,5.83
2022-12-03T16:55:10.474Z,5.79
2022-12-03T16:57:38.469Z,5.77
2022-12-03T17:00:07.685Z,5.72
2022-12-03T17:02:35.647Z,5.65
2022-12-03T17:05:03.728Z,5.60
2022-12-03T17:07:31.734Z,5.55
2022-12-03T17:09:59.709Z,5.51
2022-12-03T17:12:37.452Z,5.47
2022-12-03T17:15:15.513Z,5.42
2022-12-03T17:17:43.483Z,5.39
2022-12-03T17:20:13.384Z,5.38
2022-12-03T17:22:41.869Z,5.35
2022-12-03T17:25:10.972Z,5.33
2022-12-03T17:27:44.813Z,5.33
2022-12-03T17:30:13.919Z,5.29
2022-12-03T17:32:42.183Z,5.23
2022-12-03T17:35:11.380Z,5.20
2022-12-03T17:37:40.710Z,5.14
2022-12-03T17:40:11.415Z,5.13
2022-12-03T17:42:39.653Z,5.10
2022-12-03T17:45:08.757Z,5.07
2022-12-03T17:47:36.692Z,5.00
2022-12-03T17:50:05.504Z,4.97
2022-12-03T17:52:33.682Z,4.97
2022-12-03T17:55:11.894Z,4.95
2022-12-03T17:57:42.520Z,4.97
2022-12-03T18:00:11.568Z,4.94
2022-12-03T18:02:43.001Z,4.91
2022-12-03T18:05:10.975Z,4.89
2022-12-03T18:07:38.936Z,4.90
2022-12-03T18:10:07.605Z,4.89
2022-12-03T18:12:35.469Z,4.92
2022-12-03T18:15:03.873Z,4.97
2022-12-03T18:17:31.825Z,5.01
2022-12-03T18:19:59.663Z,5.06
2022-12-03T18:22:28.344Z,5.10
2022-12-03T18:24:56.691Z,5.17
2022-12-03T18:27:25.122Z,5.24
2022-12-03T18:29:53.332Z,5.31
2022-12-03T18:32:28.883Z,5.36
2022-12-03T18:34:58.456Z,5.39
2022-12-03T18:37:28.667Z,5.41
2022-12-03T18:39:58.238Z,5.45
2022-12-03T18:42:26.794Z,5.50
2022-12-03T18:44:56.605Z,5.50
2022-12-03T18:47:28.542Z,5.50
2022-12-03T18:49:57.229Z,5.51
2022-12-03T18:52:26.189Z,5.48
2022-12-03T18:54:55.440Z,5.42
2022-12-03T18:57:24.080Z,5.37
2022-12-03T18:59:52.148Z,5.39
2022-12-03T19:02:54.154Z,5.39
2022-12-03T19:05:12.009Z,5.39
2022-12-03T19:07:40.118Z,5.44
2022-12-03T19:10:09.008Z,5.46
2022-12-03T19:12:37.792Z,5.46
2022-12-03T19:15:06.731Z,5.49
2022-12-03T19:17:34.649Z,5.48
2022-12-03T19:20:02.487Z,5.51
2022-12-03T19:22:30.304Z,5.51
2022-12-03T19:24:58.360Z,5.52
2022-12-03T19:27:26.359Z,5.54
2022-12-03T19:29:54.354Z,5.55
2022-12-03T19:32:22.511Z,5.56
2022-12-03T19:34:50.438Z,5.56
2022-12-03T19:37:18.243Z,5.56
2022-12-03T19:39:46.588Z,5.53
2022-12-03T19:42:14.392Z,5.52
2022-12-03T19:44:42.247Z,5.52
2022-12-03T19:47:10.198Z,5.52
2022-12-03T19:49:38.207Z,5.52
2022-12-03T19:52:06.029Z,5.50
2022-12-03T19:54:33.890Z,5.47
2022-12-03T19:57:01.862Z,5.47
2022-12-03T19:59:29.841Z,5.47
2022-12-03T20:01:57.892Z,5.44
2022-12-03T20:04:26.630Z,5.44
2022-12-03T20:06:54.739Z,5.41
2022-12-03T20:09:22.713Z,5.38
2022-12-03T20:11:51.319Z,5.33
2022-12-03T20:14:19.833Z,5.29
2022-12-03T20:16:48.673Z,5.25
2022-12-03T20:19:17.959Z,5.26
2022-12-03T20:21:45.940Z,5.23
2022-12-03T20:24:16.103Z,5.16
2022-12-03T20:26:44.155Z,5.08
2022-12-03T20:29:12.504Z,5.02
2022-12-03T20:31:40.561Z,4.99
2022-12-03T20:34:10.530Z,4.97
2022-12-03T20:36:39.376Z,4.95
2022-12-03T20:39:08.110Z,4.97
2022-12-03T20:41:37.017Z,4.97
2022-12-03T20:44:07.597Z,4.95
2022-12-03T20:46:36.432Z,4.93
2022-12-03T20:49:05.701Z,4.89
2022-12-03T20:51:33.780Z,4.85
2022-12-03T20:54:02.685Z,4.84
2022-12-03T20:56:33.181Z,4.84
2022-12-03T20:59:04.911Z,4.83
2022-12-03T21:01:33.718Z,4.77
2022-12-03T21:04:04.166Z,4.74
2022-12-03T21:06:34.253Z,4.72
2022-12-03T21:09:05.754Z,4.68
2022-12-03T21:11:35.924Z,4.68
2022-12-03T21:14:04.213Z,4.65
2022-12-03T21:19:23.972Z,4.54
2022-12-03T21:21:51.974Z,4.51
2022-12-03T21:24:19.912Z,4.45
2022-12-03T21:26:47.902Z,4.36
2022-12-03T21:29:16.687Z,4.29
2022-12-03T21:31:44.655Z,4.29
2022-12-03T21:34:12.729Z,4.25
2022-12-03T21:36:40.797Z,4.20
2022-12-03T21:39:08.972Z,4.14
2022-12-03T21:41:36.879Z,4.08
2022-12-03T21:44:04.799Z,4.04
2022-12-03T21:47:10.665Z,3.98
2022-12-03T21:49:20.916Z,3.90
2022-12-03T21:51:49.193Z,3.85
2022-12-03T21:54:17.139Z,3.77
2022-12-03T21:56:45.033Z,3.72
2022-12-03T21:59:13.073Z,3.66
2022-12-03T22:01:46.771Z,3.60
2022-12-03T22:04:15.388Z,3.58
2022-12-03T22:06:43.246Z,3.55
2022-12-03T22:09:11.203Z,3.52
2022-12-03T22:11:39.186Z,3.51
2022-12-03T22:14:08.604Z,3.50
2022-12-03T22:16:36.494Z,3.49
2022-12-03T22:19:04.538Z,3.51
2022-12-03T22:21:32.506Z,3.52
2022-12-03T22:24:00.360Z,3.56
2022-12-03T22:26:28.278Z,3.59
2022-12-03T22:28:56.169Z,3.58
2022-12-03T22:31:24.128Z,3.61
2022-12-03T22:33:52.336Z,3.61
2022-12-03T22:36:21.780Z,3.60
2022-12-03T22:38:51.344Z,3.64
2022-12-03T22:41:19.832Z,3.67
2022-12-03T22:43:49.818Z,3.67
2022-12-03T22:46:17.830Z,3.64
2022-12-03T22:48:47.054Z,3.62
2022-12-03T22:51:19.461Z,3.60
2022-12-03T22:53:48.578Z,3.60
2022-12-03T22:56:17.358Z,3.60
2022-12-03T22:58:45.342Z,3.58
2022-12-03T23:01:40.549Z,3.52
2022-12-03T23:04:08.915Z,3.47
2022-12-03T23:06:37.917Z,3.44
2022-12-03T23:09:07.347Z,3.43
2022-12-03T23:11:36.346Z,3.39
2022-12-03T23:14:04.897Z,3.39
2022-12-03T23:16:34.269Z,3.37
2022-12-03T23:19:03.796Z,3.33
2022-12-03T23:21:34.659Z,3.31
2022-12-03T23:24:05.644Z,3.30
2022-12-03T23:26:35.072Z,3.27
2022-12-03T23:29:04.277Z,3.23
2022-12-03T23:31:33.319Z,3.26
2022-12-03T23:34:01.958Z,3.27
2022-12-03T23:36:32.478Z,3.22
2022-12-03T23:39:00.856Z,3.17
2022-12-03T23:41:28.838Z,3.15
2022-12-03T23:43:57.621Z,3.10
2022-12-03T23:46:27.797Z,3.08
2022-12-03T23:48:58.679Z,3.04
2022-12-03T23:51:26.946Z,3.02
2022-12-03T23:53:55.944Z,2.99
2022-12-03T23:56:27.514Z,2.95
2022-12-03T23:58:57.275Z,2.93
